sensor_id;sensor_type;location;lat;lon;timestamp;P1;durP1;ratioP1;P2;durP2;ratioP2
27436;SDS011;14886;51.586;6.722;2023-12-14T00:01:57;12.0;;;7.0;;
27436;SDS011;14886;51.586;6.722;2023-12-14T00:06:58;9.4;;;4.5;;
27436;SDS011;14886;51.586;6.722;2023-12-14T00:11:59;5.4;;;4.9;;
27436;SDS011;14886;51.586;6.722;2023-12-14T00:17:01;9.0;;;6.5;;
27436;SDS011;14886;51.586;6.722;2023-12-14T00:22:02;11.9;;;7.9;;
27436;SDS011;14886;51.586;6.722;2023-12-14T00:27:03;4.4;;;3.2;;
27436;SDS011;14886;51.586;6.722;2023-12-14T00:37:05;7.6;;;5.0;;
27436;SDS011;14886;51.586;6.722;2023-12-14T00:42:06;7.4;;;4.1;;
27436;SDS011;14886;51.586;6.722;2023-12-14T00:47:08;10.4;;;4.3;;
27436;SDS011;14886;51.586;6.722;2023-12-14T00:52:09;6.5;;;4.6;;
27436;SDS011;14886;51.586;6.722;2023-12-14T01:02:11;5.0;;;3.6;;
27436;SDS011;14886;51.586;6.722;2023-12-14T01:07:12;11.3;;;6.1;;
27436;SDS011;14886;51.586;6.722;2023-12-14T01:12:14;6.6;;;6.0;;
27436;SDS011;14886;51.586;6.722;2023-12-14T01:17:15;8.1;;;5.2;;
27436;SDS011;14886;51.586;6.722;2023-12-14T01:22:16;10.0;;;6.1;;
27436;SDS011;14886;51.586;6.722;2023-12-14T01:27:17;9.4;;;5.1;;
27436;SDS011;14886;51.586;6.722;2023-12-14T01:32:18;7.4;;;5.4;;
27436;SDS011;14886;51.586;6.722;2023-12-14T01:37:20;4.9;;;3.8;;
27436;SDS011;14886;51.586;6.722;2023-12-14T01:42:21;7.7;;;4.8;;
27436;SDS011;14886;51.586;6.722;2023-12-14T01:47:22;7.1;;;4.6;;
27436;SDS011;14886;51.586;6.722;2023-12-14T01:52:23;7.6;;;5.1;;
27436;SDS011;14886;51.586;6.722;2023-12-14T01:57:25;7.0;;;4.9;;
27436;SDS011;14886;51.586;6.722;2023-12-14T02:02:26;8.9;;;4.2;;
27436;SDS011;14886;51.586;6.722;2023-12-14T02:07:27;10.2;;;6.3;;
27436;SDS011;14886;51.586;6.722;2023-12-14T02:12:28;8.4;;;5.5;;
27436;SDS011;14886;51.586;6.722;2023-12-14T02:17:30;7.2;;;5.0;;
27436;SDS011;14886;51.586;6.722;2023-12-14T02:22:33;6.8;;;5.4;;
27436;SDS011;14886;51.586;6.722;2023-12-14T02:27:32;10.4;;;7.0;;
27436;SDS011;14886;51.586;6.722;2023-12-14T02:32:33;9.9;;;6.0;;
27436;SDS011;14886;51.586;6.722;2023-12-14T02:37:35;10.3;;;4.5;;
27436;SDS011;14886;51.586;6.722;2023-12-14T02:42:36;12.1;;;6.3;;
27436;SDS011;14886;51.586;6.722;2023-12-14T02:47:37;16.1;;;5.7;;
27436;SDS011;14886;51.586;6.722;2023-12-14T02:52:38;10.6;;;7.3;;
27436;SDS011;14886;51.586;6.722;2023-12-14T02:57:39;7.8;;;4.6;;
27436;SDS011;14886;51.586;6.722;2023-12-14T03:02:41;11.7;;;7.6;;
27436;SDS011;14886;51.586;6.722;2023-12-14T03:07:42;13.3;;;7.4;;
27436;SDS011;14886;51.586;6.722;2023-12-14T03:12:43;7.7;;;4.7;;
27436;SDS011;14886;51.586;6.722;2023-12-14T03:17:44;14.9;;;8.5;;
27436;SDS011;14886;51.586;6.722;2023-12-14T03:22:46;7.0;;;5.3;;
27436;SDS011;14886;51.586;6.722;2023-12-14T03:27:47;7.3;;;5.0;;
27436;SDS011;14886;51.586;6.722;2023-12-14T03:32:48;9.1;;;6.8;;
27436;SDS011;14886;51.586;6.722;2023-12-14T03:37:49;12.1;;;7.3;;
27436;SDS011;14886;51.586;6.722;2023-12-14T03:42:51;8.6;;;6.1;;
27436;SDS011;14886;51.586;6.722;2023-12-14T03:47:52;7.6;;;5.9;;
27436;SDS011;14886;51.586;6.722;2023-12-14T03:52:53;8.6;;;3.9;;
27436;SDS011;14886;51.586;6.722;2023-12-14T03:57:54;19.0;;;7.2;;
27436;SDS011;14886;51.586;6.722;2023-12-14T04:02:56;6.0;;;5.2;;
27436;SDS011;14886;51.586;6.722;2023-12-14T04:07:57;8.1;;;6.0;;
27436;SDS011;14886;51.586;6.722;2023-12-14T04:12:58;4.7;;;2.7;;
27436;SDS011;14886;51.586;6.722;2023-12-14T04:17:59;13.5;;;5.1;;
27436;SDS011;14886;51.586;6.722;2023-12-14T04:23:01;8.5;;;6.8;;
27436;SDS011;14886;51.586;6.722;2023-12-14T04:28:02;11.2;;;6.9;;
27436;SDS011;14886;51.586;6.722;2023-12-14T04:33:03;8.0;;;4.4;;
27436;SDS011;14886;51.586;6.722;2023-12-14T04:38:05;7.0;;;4.4;;
27436;SDS011;14886;51.586;6.722;2023-12-14T04:43:06;18.1;;;7.7;;
27436;SDS011;14886;51.586;6.722;2023-12-14T04:48:07;10.0;;;7.4;;
27436;SDS011;14886;51.586;6.722;2023-12-14T04:53:08;10.5;;;6.6;;
27436;SDS011;14886;51.586;6.722;2023-12-14T04:58:09;13.4;;;7.3;;
27436;SDS011;14886;51.586;6.722;2023-12-14T05:03:11;7.5;;;5.7;;
27436;SDS011;14886;51.586;6.722;2023-12-14T05:08:12;14.8;;;7.6;;
27436;SDS011;14886;51.586;6.722;2023-12-14T05:13:13;6.8;;;5.0;;
27436;SDS011;14886;51.586;6.722;2023-12-14T05:18:15;10.8;;;8.3;;
27436;SDS011;14886;51.586;6.722;2023-12-14T05:23:16;12.4;;;9.7;;
27436;SDS011;14886;51.586;6.722;2023-12-14T05:28:17;11.4;;;7.6;;
27436;SDS011;14886;51.586;6.722;2023-12-14T05:33:18;15.1;;;6.0;;
27436;SDS011;14886;51.586;6.722;2023-12-14T05:38:20;17.0;;;6.0;;
27436;SDS011;14886;51.586;6.722;2023-12-14T05:43:21;8.9;;;7.0;;
27436;SDS011;14886;51.586;6.722;2023-12-14T05:48:22;18.4;;;10.0;;
27436;SDS011;14886;51.586;6.722;2023-12-14T05:53:23;15.6;;;8.5;;
27436;SDS011;14886;51.586;6.722;2023-12-14T05:58:24;11.6;;;6.6;;
27436;SDS011;14886;51.586;6.722;2023-12-14T06:03:26;7.6;;;4.3;;
27436;SDS011;14886;51.586;6.722;2023-12-14T06:08:27;12.4;;;7.0;;
27436;SDS011;14886;51.586;6.722;2023-12-14T06:13:28;7.5;;;5.2;;
27436;SDS011;14886;51.586;6.722;2023-12-14T06:18:30;8.8;;;5.3;;
27436;SDS011;14886;51.586;6.722;2023-12-14T06:23:31;10.5;;;5.9;;
27436;SDS011;14886;51.586;6.722;2023-12-14T06:28:32;11.3;;;7.7;;
27436;SDS011;14886;51.586;6.722;2023-12-14T06:33:33;10.0;;;6.6;;
27436;SDS011;14886;51.586;6.722;2023-12-14T06:38:36;9.8;;;7.0;;
27436;SDS011;14886;51.586;6.722;2023-12-14T06:43:36;12.0;;;7.0;;
27436;SDS011;14886;51.586;6.722;2023-12-14T06:48:37;18.1;;;8.9;;
27436;SDS011;14886;51.586;6.722;2023-12-14T06:53:39;12.6;;;8.7;;
27436;SDS011;14886;51.586;6.722;2023-12-14T06:58:42;8.5;;;6.2;;
27436;SDS011;14886;51.586;6.722;2023-12-14T07:03:41;10.4;;;6.8;;
27436;SDS011;14886;51.586;6.722;2023-12-14T07:08:42;12.7;;;8.8;;
27436;SDS011;14886;51.586;6.722;2023-12-14T07:13:43;14.2;;;4.8;;
27436;SDS011;14886;51.586;6.722;2023-12-14T07:18:44;16.0;;;10.3;;
27436;SDS011;14886;51.586;6.722;2023-12-14T07:23:46;19.0;;;11.3;;
27436;SDS011;14886;51.586;6.722;2023-12-14T07:28:47;12.6;;;7.9;;
27436;SDS011;14886;51.586;6.722;2023-12-14T07:33:48;15.1;;;7.5;;
27436;SDS011;14886;51.586;6.722;2023-12-14T07:38:49;12.0;;;7.9;;
27436;SDS011;14886;51.586;6.722;2023-12-14T07:43:51;13.6;;;9.4;;
27436;SDS011;14886;51.586;6.722;2023-12-14T07:48:52;8.9;;;6.0;;
27436;SDS011;14886;51.586;6.722;2023-12-14T07:53:53;7.5;;;5.4;;
27436;SDS011;14886;51.586;6.722;2023-12-14T07:58:55;8.4;;;5.5;;
27436;SDS011;14886;51.586;6.722;2023-12-14T08:03:56;5.3;;;3.7;;
27436;SDS011;14886;51.586;6.722;2023-12-14T08:08:57;7.6;;;4.6;;
27436;SDS011;14886;51.586;6.722;2023-12-14T08:13:58;10.7;;;6.4;;
27436;SDS011;14886;51.586;6.722;2023-12-14T08:19:00;14.3;;;9.1;;
27436;SDS011;14886;51.586;6.722;2023-12-14T08:24:01;5.3;;;4.2;;
27436;SDS011;14886;51.586;6.722;2023-12-14T08:29:02;6.8;;;4.3;;
27436;SDS011;14886;51.586;6.722;2023-12-14T08:34:03;9.3;;;6.7;;
27436;SDS011;14886;51.586;6.722;2023-12-14T08:39:05;9.2;;;5.4;;
27436;SDS011;14886;51.586;6.722;2023-12-14T08:44:06;9.5;;;6.9;;
27436;SDS011;14886;51.586;6.722;2023-12-14T08:49:07;8.1;;;4.4;;
27436;SDS011;14886;51.586;6.722;2023-12-14T08:54:08;10.4;;;6.2;;
27436;SDS011;14886;51.586;6.722;2023-12-14T08:59:10;5.9;;;4.8;;
27436;SDS011;14886;51.586;6.722;2023-12-14T09:04:11;6.3;;;3.8;;
27436;SDS011;14886;51.586;6.722;2023-12-14T09:14:13;9.4;;;6.3;;
27436;SDS011;14886;51.586;6.722;2023-12-14T09:19:15;8.8;;;5.4;;
27436;SDS011;14886;51.586;6.722;2023-12-14T09:24:16;7.4;;;5.3;;
27436;SDS011;14886;51.586;6.722;2023-12-14T09:29:17;6.9;;;3.6;;
27436;SDS011;14886;51.586;6.722;2023-12-14T09:34:18;7.1;;;5.3;;
27436;SDS011;14886;51.586;6.722;2023-12-14T09:39:20;12.9;;;6.6;;
27436;SDS011;14886;51.586;6.722;2023-12-14T09:44:21;5.7;;;3.2;;
27436;SDS011;14886;51.586;6.722;2023-12-14T09:49:22;7.1;;;3.8;;
27436;SDS011;14886;51.586;6.722;2023-12-14T09:54:24;6.2;;;4.5;;
27436;SDS011;14886;51.586;6.722;2023-12-14T09:59:25;3.4;;;2.9;;
27436;SDS011;14886;51.586;6.722;2023-12-14T10:04:26;3.6;;;2.6;;
27436;SDS011;14886;51.586;6.722;2023-12-14T10:09:27;5.0;;;3.5;;
27436;SDS011;14886;51.586;6.722;2023-12-14T10:14:28;4.7;;;2.8;;
27436;SDS011;14886;51.586;6.722;2023-12-14T10:19:30;5.4;;;4.0;;
27436;SDS011;14886;51.586;6.722;2023-12-14T10:24:31;4.4;;;4.0;;
27436;SDS011;14886;51.586;6.722;2023-12-14T10:29:32;5.4;;;4.4;;
27436;SDS011;14886;51.586;6.722;2023-12-14T10:34:33;4.5;;;3.4;;
27436;SDS011;14886;51.586;6.722;2023-12-14T10:39:35;5.7;;;3.6;;
27436;SDS011;14886;51.586;6.722;2023-12-14T10:44:36;4.4;;;3.7;;
27436;SDS011;14886;51.586;6.722;2023-12-14T10:49:37;4.9;;;3.4;;
27436;SDS011;14886;51.586;6.722;2023-12-14T10:54:38;3.5;;;2.8;;
27436;SDS011;14886;51.586;6.722;2023-12-14T10:59:41;7.7;;;3.0;;
27436;SDS011;14886;51.586;6.722;2023-12-14T11:09:43;3.9;;;3.5;;
27436;SDS011;14886;51.586;6.722;2023-12-14T11:14:43;8.0;;;5.7;;
27436;SDS011;14886;51.586;6.722;2023-12-14T11:19:45;4.6;;;3.6;;
27436;SDS011;14886;51.586;6.722;2023-12-14T11:24:50;4.7;;;3.1;;
27436;SDS011;14886;51.586;6.722;2023-12-14T11:29:47;4.0;;;3.0;;
27436;SDS011;14886;51.586;6.722;2023-12-14T11:34:48;5.7;;;3.9;;
27436;SDS011;14886;51.586;6.722;2023-12-14T11:39:50;5.1;;;3.8;;
27436;SDS011;14886;51.586;6.722;2023-12-14T11:44:51;5.6;;;3.1;;
27436;SDS011;14886;51.586;6.722;2023-12-14T11:49:52;3.4;;;2.7;;
27436;SDS011;14886;51.586;6.722;2023-12-14T11:54:53;5.1;;;3.6;;
27436;SDS011;14886;51.586;6.722;2023-12-14T11:59:54;5.2;;;3.7;;
27436;SDS011;14886;51.586;6.722;2023-12-14T12:04:56;5.3;;;4.4;;
27436;SDS011;14886;51.586;6.722;2023-12-14T12:09:58;3.9;;;2.7;;
27436;SDS011;14886;51.586;6.722;2023-12-14T12:14:58;5.5;;;3.6;;
27436;SDS011;14886;51.586;6.722;2023-12-14T12:19:59;4.8;;;3.8;;
27436;SDS011;14886;51.586;6.722;2023-12-14T12:25:01;5.0;;;4.0;;
27436;SDS011;14886;51.586;6.722;2023-12-14T12:30:02;6.8;;;5.2;;
27436;SDS011;14886;51.586;6.722;2023-12-14T12:40:05;7.1;;;2.5;;
27436;SDS011;14886;51.586;6.722;2023-12-14T12:45:06;1.7;;;1.5;;
27436;SDS011;14886;51.586;6.722;2023-12-14T12:50:07;4.2;;;3.0;;
27436;SDS011;14886;51.586;6.722;2023-12-14T12:55:08;3.5;;;2.8;;
27436;SDS011;14886;51.586;6.722;2023-12-14T13:00:10;2.5;;;2.2;;
27436;SDS011;14886;51.586;6.722;2023-12-14T13:05:11;1.8;;;1.2;;
27436;SDS011;14886;51.586;6.722;2023-12-14T13:10:12;5.4;;;3.7;;
27436;SDS011;14886;51.586;6.722;2023-12-14T13:15:13;2.5;;;2.0;;
27436;SDS011;14886;51.586;6.722;2023-12-14T13:20:14;4.0;;;2.5;;
27436;SDS011;14886;51.586;6.722;2023-12-14T13:25:15;3.1;;;2.3;;
27436;SDS011;14886;51.586;6.722;2023-12-14T13:30:17;1.3;;;1.1;;
27436;SDS011;14886;51.586;6.722;2023-12-14T13:35:18;4.3;;;3.2;;
27436;SDS011;14886;51.586;6.722;2023-12-14T13:40:19;5.1;;;3.1;;
27436;SDS011;14886;51.586;6.722;2023-12-14T13:45:20;5.0;;;2.8;;
27436;SDS011;14886;51.586;6.722;2023-12-14T13:50:22;3.9;;;3.1;;
27436;SDS011;14886;51.586;6.722;2023-12-14T13:55:23;3.3;;;2.1;;
27436;SDS011;14886;51.586;6.722;2023-12-14T14:00:24;3.7;;;2.9;;
27436;SDS011;14886;51.586;6.722;2023-12-14T14:05:25;4.3;;;4.0;;
27436;SDS011;14886;51.586;6.722;2023-12-14T14:10:27;2.7;;;2.5;;
27436;SDS011;14886;51.586;6.722;2023-12-14T14:15:28;7.2;;;3.4;;
27436;SDS011;14886;51.586;6.722;2023-12-14T14:20:29;14.9;;;3.3;;
27436;SDS011;14886;51.586;6.722;2023-12-14T14:25:30;7.3;;;3.2;;
27436;SDS011;14886;51.586;6.722;2023-12-14T14:30:32;4.3;;;3.5;;
27436;SDS011;14886;51.586;6.722;2023-12-14T14:35:33;6.4;;;5.6;;
27436;SDS011;14886;51.586;6.722;2023-12-14T14:40:34;5.0;;;3.1;;
27436;SDS011;14886;51.586;6.722;2023-12-14T14:45:35;4.9;;;2.7;;
27436;SDS011;14886;51.586;6.722;2023-12-14T14:50:37;3.8;;;3.4;;
27436;SDS011;14886;51.586;6.722;2023-12-14T14:55:38;4.8;;;3.2;;
27436;SDS011;14886;51.586;6.722;2023-12-14T15:00:39;3.6;;;2.7;;
27436;SDS011;14886;51.586;6.722;2023-12-14T15:05:40;8.3;;;3.9;;
27436;SDS011;14886;51.586;6.722;2023-12-14T15:10:42;7.6;;;4.1;;
27436;SDS011;14886;51.586;6.722;2023-12-14T15:15:43;5.3;;;3.6;;
27436;SDS011;14886;51.586;6.722;2023-12-14T15:20:44;5.0;;;3.7;;
27436;SDS011;14886;51.586;6.722;2023-12-14T15:25:45;7.8;;;4.5;;
27436;SDS011;14886;51.586;6.722;2023-12-14T15:30:47;3.6;;;2.8;;
27436;SDS011;14886;51.586;6.722;2023-12-14T15:35:48;13.4;;;3.3;;
27436;SDS011;14886;51.586;6.722;2023-12-14T15:40:49;3.3;;;2.5;;
27436;SDS011;14886;51.586;6.722;2023-12-14T15:45:50;4.9;;;3.7;;
27436;SDS011;14886;51.586;6.722;2023-12-14T15:50:51;6.6;;;3.8;;
27436;SDS011;14886;51.586;6.722;2023-12-14T15:55:53;4.6;;;3.5;;
27436;SDS011;14886;51.586;6.722;2023-12-14T16:00:54;5.1;;;3.4;;
27436;SDS011;14886;51.586;6.722;2023-12-14T16:05:55;4.9;;;4.1;;
27436;SDS011;14886;51.586;6.722;2023-12-14T16:10:56;4.4;;;3.1;;
27436;SDS011;14886;51.586;6.722;2023-12-14T16:15:58;4.8;;;4.1;;
27436;SDS011;14886;51.586;6.722;2023-12-14T16:20:59;12.9;;;3.6;;
27436;SDS011;14886;51.586;6.722;2023-12-14T16:26:00;3.1;;;2.6;;
27436;SDS011;14886;51.586;6.722;2023-12-14T16:31:02;7.9;;;4.2;;
27436;SDS011;14886;51.586;6.722;2023-12-14T16:36:08;8.4;;;4.4;;
27436;SDS011;14886;51.586;6.722;2023-12-14T16:41:04;5.0;;;4.5;;
27436;SDS011;14886;51.586;6.722;2023-12-14T16:46:05;7.6;;;3.9;;
27436;SDS011;14886;51.586;6.722;2023-12-14T16:51:07;5.0;;;3.0;;
27436;SDS011;14886;51.586;6.722;2023-12-14T17:01:09;6.7;;;4.5;;
27436;SDS011;14886;51.586;6.722;2023-12-14T17:06:10;7.9;;;4.2;;
27436;SDS011;14886;51.586;6.722;2023-12-14T17:11:11;4.9;;;3.3;;
27436;SDS011;14886;51.586;6.722;2023-12-14T17:16:13;4.7;;;3.1;;
27436;SDS011;14886;51.586;6.722;2023-12-14T17:26:15;4.6;;;3.8;;
27436;SDS011;14886;51.586;6.722;2023-12-14T17:31:17;4.4;;;4.0;;
27436;SDS011;14886;51.586;6.722;2023-12-14T17:36:18;5.3;;;3.3;;
27436;SDS011;14886;51.586;6.722;2023-12-14T17:41:19;7.2;;;4.3;;
27436;SDS011;14886;51.586;6.722;2023-12-14T17:46:21;6.6;;;4.8;;
27436;SDS011;14886;51.586;6.722;2023-12-14T17:51:21;5.8;;;3.9;;
27436;SDS011;14886;51.586;6.722;2023-12-14T17:56:23;10.1;;;6.9;;
27436;SDS011;14886;51.586;6.722;2023-12-14T18:01:24;7.1;;;4.8;;
27436;SDS011;14886;51.586;6.722;2023-12-14T18:06:25;8.1;;;4.2;;
27436;SDS011;14886;51.586;6.722;2023-12-14T18:11:26;7.2;;;4.8;;
27436;SDS011;14886;51.586;6.722;2023-12-14T18:16:28;5.8;;;4.3;;
27436;SDS011;14886;51.586;6.722;2023-12-14T18:21:29;8.2;;;4.6;;
27436;SDS011;14886;51.586;6.722;2023-12-14T18:26:30;9.3;;;5.0;;
27436;SDS011;14886;51.586;6.722;2023-12-14T18:31:31;8.9;;;4.7;;
27436;SDS011;14886;51.586;6.722;2023-12-14T18:36:33;17.1;;;4.5;;
27436;SDS011;14886;51.586;6.722;2023-12-14T18:41:34;6.2;;;4.4;;
27436;SDS011;14886;51.586;6.722;2023-12-14T18:46:35;8.2;;;6.4;;
27436;SDS011;14886;51.586;6.722;2023-12-14T18:51:36;6.9;;;4.6;;
27436;SDS011;14886;51.586;6.722;2023-12-14T18:56:37;7.4;;;4.8;;
27436;SDS011;14886;51.586;6.722;2023-12-14T19:01:39;10.0;;;5.7;;
27436;SDS011;14886;51.586;6.722;2023-12-14T19:06:40;5.7;;;4.5;;
27436;SDS011;14886;51.586;6.722;2023-12-14T19:11:41;8.8;;;5.7;;
27436;SDS011;14886;51.586;6.722;2023-12-14T19:16:42;8.7;;;6.3;;
27436;SDS011;14886;51.586;6.722;2023-12-14T19:21:44;17.8;;;6.3;;
27436;SDS011;14886;51.586;6.722;2023-12-14T19:26:45;8.8;;;6.6;;
27436;SDS011;14886;51.586;6.722;2023-12-14T19:31:46;8.9;;;5.6;;
27436;SDS011;14886;51.586;6.722;2023-12-14T19:36:47;8.7;;;6.1;;
27436;SDS011;14886;51.586;6.722;2023-12-14T19:41:48;9.1;;;6.9;;
27436;SDS011;14886;51.586;6.722;2023-12-14T19:46:50;7.8;;;5.3;;
27436;SDS011;14886;51.586;6.722;2023-12-14T19:51:51;11.6;;;5.9;;
27436;SDS011;14886;51.586;6.722;2023-12-14T19:56:52;10.2;;;6.9;;
27436;SDS011;14886;51.586;6.722;2023-12-14T20:06:54;10.7;;;6.5;;
27436;SDS011;14886;51.586;6.722;2023-12-14T20:11:56;10.9;;;6.1;;
27436;SDS011;14886;51.586;6.722;2023-12-14T20:16:57;11.2;;;5.3;;
27436;SDS011;14886;51.586;6.722;2023-12-14T20:21:58;9.3;;;6.0;;
27436;SDS011;14886;51.586;6.722;2023-12-14T20:26:59;6.6;;;5.5;;
27436;SDS011;14886;51.586;6.722;2023-12-14T20:32:00;6.7;;;5.4;;
27436;SDS011;14886;51.586;6.722;2023-12-14T20:37:02;7.5;;;6.2;;
27436;SDS011;14886;51.586;6.722;2023-12-14T20:42:03;9.5;;;6.4;;
27436;SDS011;14886;51.586;6.722;2023-12-14T20:47:04;8.7;;;7.4;;
27436;SDS011;14886;51.586;6.722;2023-12-14T20:52:05;12.5;;;7.0;;
27436;SDS011;14886;51.586;6.722;2023-12-14T20:57:07;10.4;;;6.8;;
27436;SDS011;14886;51.586;6.722;2023-12-14T21:02:08;13.7;;;7.4;;
27436;SDS011;14886;51.586;6.722;2023-12-14T21:07:09;12.5;;;8.8;;
27436;SDS011;14886;51.586;6.722;2023-12-14T21:12:10;10.7;;;6.7;;
27436;SDS011;14886;51.586;6.722;2023-12-14T21:17:12;11.2;;;7.0;;
27436;SDS011;14886;51.586;6.722;2023-12-14T21:22:13;11.9;;;6.2;;
27436;SDS011;14886;51.586;6.722;2023-12-14T21:27:14;8.2;;;5.7;;
27436;SDS011;14886;51.586;6.722;2023-12-14T21:32:15;11.9;;;7.8;;
27436;SDS011;14886;51.586;6.722;2023-12-14T21:37:16;6.7;;;6.0;;
27436;SDS011;14886;51.586;6.722;2023-12-14T21:42:18;12.5;;;7.5;;
27436;SDS011;14886;51.586;6.722;2023-12-14T21:47:19;11.1;;;6.2;;
27436;SDS011;14886;51.586;6.722;2023-12-14T21:52:20;7.9;;;5.8;;
27436;SDS011;14886;51.586;6.722;2023-12-14T21:57:21;8.9;;;5.8;;
27436;SDS011;14886;51.586;6.722;2023-12-14T22:02:22;8.5;;;5.8;;
27436;SDS011;14886;51.586;6.722;2023-12-14T22:07:24;13.8;;;6.1;;
27436;SDS011;14886;51.586;6.722;2023-12-14T22:12:25;7.6;;;6.1;;
27436;SDS011;14886;51.586;6.722;2023-12-14T22:17:26;9.6;;;6.5;;
27436;SDS011;14886;51.586;6.722;2023-12-14T22:22:27;14.5;;;7.6;;
27436;SDS011;14886;51.586;6.722;2023-12-14T22:27:28;7.9;;;6.8;;
27436;SDS011;14886;51.586;6.722;2023-12-14T22:32:30;12.3;;;6.3;;
27436;SDS011;14886;51.586;6.722;2023-12-14T22:37:31;12.8;;;7.9;;
27436;SDS011;14886;51.586;6.722;2023-12-14T22:42:33;5.3;;;4.8;;
27436;SDS011;14886;51.586;6.722;2023-12-14T22:47:33;7.3;;;5.9;;
27436;SDS011;14886;51.586;6.722;2023-12-14T22:52:35;8.3;;;6.2;;
27436;SDS011;14886;51.586;6.722;2023-12-14T22:57:36;11.0;;;6.8;;
27436;SDS011;14886;51.586;6.722;2023-12-14T23:02:37;9.0;;;5.8;;
27436;SDS011;14886;51.586;6.722;2023-12-14T23:07:39;13.0;;;6.8;;
27436;SDS011;14886;51.586;6.722;2023-12-14T23:12:39;8.5;;;6.7;;
27436;SDS011;14886;51.586;6.722;2023-12-14T23:17:41;10.7;;;6.2;;
27436;SDS011;14886;51.586;6.722;2023-12-14T23:22:42;11.8;;;6.5;;
27436;SDS011;14886;51.586;6.722;2023-12-14T23:27:43;9.6;;;5.2;;
27436;SDS011;14886;51.586;6.722;2023-12-14T23:32:44;9.8;;;5.5;;
27436;SDS011;14886;51.586;6.722;2023-12-14T23:37:45;8.6;;;6.4;;
27436;SDS011;14886;51.586;6.722;2023-12-14T23:42:47;11.0;;;7.8;;
27436;SDS011;14886;51.586;6.722;2023-12-14T23:47:48;13.4;;;7.5;;
27436;SDS011;14886;51.586;6.722;2023-12-14T23:52:49;12.9;;;6.8;;
27436;SDS011;14886;51.586;6.722;2023-12-14T23:57:50;8.6;;;7.0;;
